Oscoda, MI (48750)

10:28 AM EDT on March 26, 2017 (GMT -0400)
Huron Shore - 1 mi north of Ausable Point | | Change Station

Elev 600 ft 44.36 °N, 83.34 °W | Updated 24 seconds ago

Overcast
Overcast
35.8 °F
Feels Like 29 °F
N
8.9
Wind Variable Wind from ENE

Today
High -- | Low -- °F
--% Chance of Precip.
Yesterday
High -- | Low -- °F
Precip. -- in
Pressure 30.06 in
Visibility 10.0 miles
Clouds Overcast 1600 ft
Windchill 29 °F
Dew Point 36 °F
Humidity 99%
Rainfall 0.13 in
Snow Depth Not available.
7:24 AM 7:53 PM
Waning Crescent, 3% visible
METAR KOSC 261414Z AUTO 08005KT 10SM OVC016 03/02 A3006 RMK AO2 T00310020
Pressure 30.06 in
Visibility 10.0 miles
Clouds Overcast 1600 ft
Windchill 29 °F
Dew Point 36 °F
Humidity 99%
Rainfall 0.13 in
Snow Depth Not available.
7:24 AM 7:53 PM
Waning Crescent, 3% visible
METAR KOSC 261414Z AUTO 08005KT 10SM OVC016 03/02 A3006 RMK AO2 T00310020

Get Severe Weather Alerts

Thanks for signing up!

Be on the lookout for a verification email in your inbox.

You'll start receiving the daily forecast at 8 AM.

×

10-Day Weather Forecast

Almanac

Astronomy

Mar. 26, 2017 Rise Set
Actual Time
Civil Twilight
Nautical Twilight
Astronomical Twilight
Moon
Length of Visible Light
Length of Day
Tomorrow will be .
, % of the Moon is Illuminated

Today's Extremes

State Highs State Lows

Community

WunderPhotos

Upload Photos

1,962,540 photos uploaded!

WunderBlog® & News

Nearby

Air Quality

  Air Quality AQ Index Pollutant
Not available.

Snow Depth

Station Depth Elevation

Earthquake Activity

City Distance Mag. Time & Date
Minimum magnitude displayed is 2.5.

Earthquake Activity

City Distance Mag. Time & Date
Minimum magnitude displayed is 2.5.

Coastal Water Temperatures

Place Temperature

Stations

Nearby Weather Stations

Station Location Temp. Windchill Dew Point Humidity Wind Precip. Elev Updated Type
                   

Watches & Warnings

There are currently no watches in effect.